createdAt,value
2022-08-28T00:01:57.723Z,100.00
2022-08-28T00:04:24.920Z,100.00
2022-08-28T00:06:51.940Z,100.00
2022-08-28T00:09:19.039Z,100.00
2022-08-28T00:11:47.315Z,100.00
2022-08-28T00:14:14.561Z,100.00
2022-08-28T00:16:42.231Z,100.00
2022-08-28T00:19:11.002Z,100.00
2022-08-28T00:21:38.319Z,100.00
2022-08-28T00:24:05.324Z,100.00
2022-08-28T00:26:51.160Z,100.00
2022-08-28T00:29:18.001Z,100.00
2022-08-28T00:31:45.079Z,100.00
2022-08-28T00:34:12.540Z,100.00
2022-08-28T00:36:41.481Z,100.00
2022-08-28T00:39:09.623Z,100.00
2022-08-28T00:41:41.197Z,100.00
2022-08-28T00:44:19.076Z,100.00
2022-08-28T00:46:49.557Z,100.00
2022-08-28T00:49:21.207Z,100.00
2022-08-28T00:52:11.831Z,100.00
2022-08-28T00:54:59.510Z,100.00
2022-08-28T00:57:41.006Z,100.00
2022-08-28T01:00:14.099Z,100.00
2022-08-28T01:02:41.198Z,100.00
2022-08-28T01:05:09.840Z,100.00
2022-08-28T01:07:38.136Z,100.00
2022-08-28T01:10:09.682Z,100.00
2022-08-28T01:12:37.252Z,100.00
2022-08-28T01:15:14.046Z,100.00
2022-08-28T01:17:48.073Z,100.00
2022-08-28T01:20:19.692Z,100.00
2022-08-28T01:23:14.203Z,100.00
2022-08-28T01:25:42.585Z,100.00
2022-08-28T01:28:12.676Z,100.00
2022-08-28T01:30:45.406Z,100.00
2022-08-28T01:33:14.852Z,100.00
2022-08-28T01:35:45.812Z,100.00
2022-08-28T01:38:12.857Z,100.00
2022-08-28T01:40:48.908Z,100.00
2022-08-28T01:43:17.187Z,100.00
2022-08-28T01:45:47.507Z,100.00
2022-08-28T01:48:16.124Z,100.00
2022-08-28T01:50:44.020Z,100.00
2022-08-28T01:53:15.719Z,100.00
2022-08-28T01:55:44.028Z,100.00
2022-08-28T01:58:12.271Z,100.00
2022-08-28T02:00:40.038Z,100.00
2022-08-28T02:03:07.152Z,100.00
2022-08-28T02:05:34.989Z,100.00
2022-08-28T02:08:04.951Z,100.00
2022-08-28T02:10:34.016Z,100.00
2022-08-28T02:13:01.527Z,100.00
2022-08-28T02:15:30.565Z,100.00
2022-08-28T02:17:58.281Z,100.00
2022-08-28T02:20:25.730Z,100.00
2022-08-28T02:22:53.031Z,100.00
2022-08-28T02:25:20.124Z,100.00
2022-08-28T02:27:47.015Z,100.00
2022-08-28T02:30:15.457Z,100.00
2022-08-28T02:32:44.451Z,100.00
2022-08-28T02:35:13.326Z,100.00
2022-08-28T02:37:44.344Z,100.00
2022-08-28T02:43:08.643Z,100.00
2022-08-28T02:45:36.150Z,100.00
2022-08-28T02:48:03.319Z,100.00
2022-08-28T02:50:31.567Z,100.00
2022-08-28T02:52:58.746Z,100.00
2022-08-28T02:55:25.832Z,100.00
2022-08-28T02:57:53.002Z,100.00
2022-08-28T03:00:23.604Z,100.00
2022-08-28T03:02:51.248Z,100.00
2022-08-28T03:05:21.125Z,100.00
2022-08-28T03:07:49.415Z,100.00
2022-08-28T03:10:16.431Z,100.00
2022-08-28T03:12:43.585Z,100.00
2022-08-28T03:15:11.406Z,100.00
2022-08-28T03:17:39.146Z,100.00
2022-08-28T03:20:09.532Z,100.00
2022-08-28T03:22:55.535Z,100.00
2022-08-28T03:25:23.291Z,100.00
2022-08-28T03:27:50.875Z,100.00
2022-08-28T03:30:18.970Z,100.00
2022-08-28T03:32:45.934Z,100.00
2022-08-28T03:35:13.316Z,100.00
2022-08-28T03:37:40.409Z,100.00
2022-08-28T03:40:08.791Z,100.00
2022-08-28T03:42:36.076Z,100.00
2022-08-28T03:45:05.504Z,100.00
2022-08-28T03:47:32.339Z,100.00
2022-08-28T03:50:00.319Z,100.00
2022-08-28T03:52:27.258Z,100.00
2022-08-28T03:54:54.361Z,100.00
2022-08-28T03:57:22.600Z,100.00
2022-08-28T03:59:51.574Z,100.00
2022-08-28T04:02:20.661Z,100.00
2022-08-28T04:04:50.707Z,100.00
2022-08-28T04:07:18.966Z,100.00
2022-08-28T04:09:46.970Z,100.00
2022-08-28T04:12:15.261Z,100.00
2022-08-28T04:14:42.295Z,100.00
2022-08-28T04:17:10.009Z,100.00
2022-08-28T04:19:38.078Z,100.00
2022-08-28T04:22:04.940Z,100.00
2022-08-28T04:24:31.786Z,100.00
2022-08-28T04:26:58.979Z,100.00
2022-08-28T04:29:25.918Z,98.54
2022-08-28T04:31:53.118Z,96.78
2022-08-28T04:34:20.223Z,94.68
2022-08-28T04:36:50.121Z,94.80
2022-08-28T04:39:17.224Z,95.73
2022-08-28T04:41:44.310Z,99.26
2022-08-28T04:44:11.203Z,100.00
2022-08-28T04:46:38.624Z,100.00
2022-08-28T04:49:06.029Z,100.00
2022-08-28T04:51:33.432Z,100.00
2022-08-28T04:54:02.633Z,100.00
2022-08-28T04:56:29.822Z,100.00
2022-08-28T04:58:56.691Z,100.00
2022-08-28T05:01:24.945Z,100.00
2022-08-28T05:03:57.906Z,100.00
2022-08-28T05:06:29.289Z,100.00
2022-08-28T05:08:59.164Z,100.00
2022-08-28T05:11:33.762Z,100.00
2022-08-28T05:14:15.914Z,100.00
2022-08-28T05:16:53.046Z,100.00
2022-08-28T05:19:21.239Z,100.00
2022-08-28T05:21:49.422Z,100.00
2022-08-28T05:24:16.283Z,100.00
2022-08-28T05:26:43.330Z,100.00
2022-08-28T05:29:11.240Z,100.00
2022-08-28T05:31:40.376Z,100.00
2022-08-28T05:34:07.487Z,100.00
2022-08-28T05:36:36.755Z,100.00
2022-08-28T05:39:07.179Z,100.00
2022-08-28T05:41:34.764Z,100.00
2022-08-28T05:44:04.866Z,100.00
2022-08-28T05:46:32.379Z,100.00
2022-08-28T05:49:00.573Z,99.75
2022-08-28T05:51:28.576Z,100.00
2022-08-28T05:53:57.768Z,97.05
2022-08-28T05:56:31.047Z,89.43
2022-08-28T05:59:00.193Z,84.00
2022-08-28T06:01:33.876Z,77.16
2022-08-28T06:04:03.472Z,75.99
2022-08-28T06:06:34.489Z,72.32
2022-08-28T06:09:08.758Z,71.33
2022-08-28T06:11:36.025Z,72.30
2022-08-28T06:14:04.567Z,73.69
2022-08-28T06:16:32.578Z,72.14
2022-08-28T06:19:00.770Z,71.70
2022-08-28T06:21:29.421Z,70.31
2022-08-28T06:23:56.475Z,68.27
2022-08-28T06:26:23.991Z,67.72
2022-08-28T06:28:53.169Z,68.83
2022-08-28T06:31:24.548Z,66.40
2022-08-28T06:33:57.837Z,63.13
2022-08-28T06:36:27.612Z,61.61
2022-08-28T06:38:58.235Z,61.22
2022-08-28T06:41:26.590Z,63.87
2022-08-28T06:43:54.134Z,65.22
2022-08-28T06:46:22.049Z,68.47
2022-08-28T06:48:49.014Z,70.45
2022-08-28T06:51:15.850Z,70.62
2022-08-28T06:53:44.650Z,69.56
2022-08-28T06:56:25.709Z,69.38
2022-08-28T06:58:56.826Z,67.87
2022-08-28T07:01:33.022Z,66.94
2022-08-28T07:04:09.054Z,68.09
2022-08-28T07:06:38.999Z,68.87
2022-08-28T07:09:08.540Z,66.71
2022-08-28T07:11:36.777Z,64.41
2022-08-28T07:14:04.954Z,60.72
2022-08-28T07:16:35.539Z,58.47
2022-08-28T07:19:05.013Z,54.00
2022-08-28T07:21:36.930Z,51.15
2022-08-28T07:24:07.102Z,45.21
2022-08-28T07:26:34.972Z,42.53
2022-08-28T07:29:09.894Z,41.75
2022-08-28T07:31:44.058Z,39.46
2022-08-28T07:34:12.504Z,39.53
2022-08-28T07:36:39.826Z,40.68
2022-08-28T07:39:08.022Z,40.76
2022-08-28T07:41:39.058Z,42.16
2022-08-28T07:44:26.420Z,40.74
2022-08-28T07:46:55.634Z,39.83
2022-08-28T07:49:23.393Z,38.41
2022-08-28T07:51:50.239Z,39.41
2022-08-28T07:54:22.614Z,40.32
2022-08-28T07:56:50.768Z,41.33
2022-08-28T07:59:19.431Z,42.89
2022-08-28T08:01:47.842Z,43.52
2022-08-28T08:04:16.373Z,44.31
2022-08-28T08:06:44.289Z,45.65
2022-08-28T08:09:14.692Z,43.08
2022-08-28T08:11:42.760Z,41.01
2022-08-28T08:14:10.107Z,41.00
2022-08-28T08:16:39.755Z,39.53
2022-08-28T08:19:10.123Z,36.17
2022-08-28T08:21:37.533Z,34.29
2022-08-28T08:24:05.272Z,32.91
2022-08-28T08:26:33.695Z,32.55
2022-08-28T08:29:01.093Z,33.09
2022-08-28T08:31:32.728Z,33.51
2022-08-28T08:34:03.620Z,35.75
2022-08-28T08:36:32.792Z,36.63
2022-08-28T08:39:00.736Z,38.14
2022-08-28T08:41:48.427Z,39.70
2022-08-28T08:44:40.895Z,42.77
2022-08-28T08:47:19.497Z,41.63
2022-08-28T08:49:52.455Z,42.17
2022-08-28T08:52:44.062Z,40.93
2022-08-28T08:55:25.954Z,38.49
2022-08-28T08:58:16.625Z,37.26
2022-08-28T09:00:52.784Z,35.98
2022-08-28T09:03:25.176Z,32.41
2022-08-28T09:05:56.955Z,30.92
2022-08-28T09:08:30.835Z,28.86
2022-08-28T09:11:07.150Z,27.98
2022-08-28T09:13:37.013Z,26.95
2022-08-28T09:16:13.030Z,27.11
2022-08-28T09:18:40.554Z,27.10
2022-08-28T09:21:07.370Z,24.49
2022-08-28T09:23:34.326Z,24.39
2022-08-28T09:26:09.349Z,23.84
2022-08-28T09:28:40.867Z,24.67
2022-08-28T09:31:20.074Z,26.08
2022-08-28T09:33:51.352Z,26.23
2022-08-28T09:36:34.459Z,25.79
2022-08-28T09:39:32.073Z,28.04
2022-08-28T09:42:32.768Z,26.84
2022-08-28T09:44:59.890Z,28.36
2022-08-28T09:47:46.271Z,30.03
2022-08-28T09:50:21.565Z,29.91
2022-08-28T09:52:49.689Z,29.14
2022-08-28T09:55:33.567Z,29.41
2022-08-28T09:58:01.330Z,31.35
2022-08-28T10:00:34.201Z,32.32
2022-08-28T10:03:14.598Z,30.81
2022-08-28T10:05:58.343Z,33.23
2022-08-28T10:08:57.667Z,34.05
2022-08-28T10:11:34.225Z,33.88
2022-08-28T10:14:15.125Z,34.42
2022-08-28T10:17:25.230Z,34.14
2022-08-28T10:20:14.070Z,34.08
2022-08-28T10:23:01.295Z,34.50
2022-08-28T10:25:44.184Z,35.36
2022-08-28T10:28:24.092Z,36.49
2022-08-28T10:30:56.128Z,35.71
2022-08-28T10:33:45.745Z,35.76
2022-08-28T10:36:33.973Z,35.56
2022-08-28T10:39:12.296Z,30.21
2022-08-28T10:41:55.832Z,31.19
2022-08-28T10:44:41.405Z,28.27
2022-08-28T10:47:10.243Z,28.47
2022-08-28T10:49:49.088Z,26.97
2022-08-28T10:52:32.427Z,27.19
2022-08-28T10:55:02.203Z,26.51
2022-08-28T10:57:36.117Z,25.07
2022-08-28T11:00:14.637Z,25.85
2022-08-28T11:02:45.988Z,25.32
2022-08-28T11:05:13.512Z,24.70
2022-08-28T11:07:54.472Z,23.58
2022-08-28T11:10:36.493Z,22.72
2022-08-28T11:13:06.368Z,22.28
2022-08-28T11:15:37.109Z,21.29
2022-08-28T11:18:16.447Z,21.57
2022-08-28T11:20:56.272Z,21.19
2022-08-28T11:23:35.403Z,20.11
2022-08-28T11:26:06.600Z,20.95
2022-08-28T11:28:36.462Z,21.24
2022-08-28T11:31:06.275Z,21.72
2022-08-28T11:33:52.985Z,21.35
2022-08-28T11:36:19.939Z,21.94
2022-08-28T11:38:52.918Z,21.01
2022-08-28T11:41:29.493Z,21.97
2022-08-28T11:44:12.608Z,23.18
2022-08-28T11:46:43.468Z,23.76
2022-08-28T11:49:33.646Z,24.89
2022-08-28T11:52:18.104Z,26.89
2022-08-28T11:55:07.020Z,25.96
2022-08-28T11:57:54.274Z,26.31
2022-08-28T12:00:33.034Z,25.56
2022-08-28T12:03:11.263Z,26.02
2022-08-28T12:05:40.171Z,26.88
2022-08-28T12:08:09.011Z,27.88
2022-08-28T12:10:35.806Z,28.30
2022-08-28T12:13:05.356Z,29.09
2022-08-28T12:15:32.405Z,29.83
2022-08-28T12:18:05.711Z,30.74
2022-08-28T12:20:35.704Z,30.36
2022-08-28T12:23:24.728Z,30.70
2022-08-28T12:26:01.767Z,29.82
2022-08-28T12:28:51.940Z,30.25
2022-08-28T12:32:05.235Z,30.57
2022-08-28T12:34:58.181Z,31.66
2022-08-28T12:37:52.278Z,31.77
2022-08-28T12:40:38.332Z,30.18
2022-08-28T12:43:08.126Z,29.98
2022-08-28T12:45:42.796Z,26.99
2022-08-28T12:48:24.438Z,26.88
2022-08-28T12:51:08.579Z,27.62
2022-08-28T12:53:47.550Z,28.36
2022-08-28T12:56:17.890Z,29.00
2022-08-28T12:58:46.045Z,30.19
2022-08-28T13:01:27.490Z,31.19
2022-08-28T13:04:02.005Z,33.02
2022-08-28T13:06:39.147Z,34.47
2022-08-28T13:09:14.238Z,35.78
2022-08-28T13:11:47.320Z,37.38
2022-08-28T13:14:34.332Z,37.84
2022-08-28T13:17:01.300Z,37.94
2022-08-28T13:19:30.946Z,38.83
2022-08-28T13:22:28.530Z,40.25
2022-08-28T13:25:00.430Z,41.01
2022-08-28T13:27:27.680Z,40.96
2022-08-28T13:30:24.692Z,40.50
2022-08-28T13:32:58.155Z,41.13
2022-08-28T13:35:25.125Z,42.03
2022-08-28T13:37:54.531Z,42.66
2022-08-28T13:43:16.360Z,44.21
2022-08-28T13:45:45.951Z,44.65
2022-08-28T13:48:21.129Z,45.29
2022-08-28T13:50:52.799Z,44.05
2022-08-28T13:53:21.454Z,44.23
2022-08-28T13:55:50.762Z,43.64
2022-08-28T13:58:17.945Z,43.33
2022-08-28T14:00:47.435Z,42.93
2022-08-28T14:03:33.468Z,43.54
2022-08-28T14:06:00.835Z,42.34
2022-08-28T14:08:27.626Z,41.88
2022-08-28T14:10:54.520Z,42.61
2022-08-28T14:13:23.354Z,40.39
2022-08-28T14:15:50.293Z,40.09
2022-08-28T14:18:18.207Z,40.04
2022-08-28T14:20:45.360Z,38.93
2022-08-28T14:23:12.559Z,39.54
2022-08-28T14:25:43.960Z,37.98
2022-08-28T14:28:12.089Z,38.66
2022-08-28T14:30:44.017Z,39.25
2022-08-28T14:33:11.288Z,39.50
2022-08-28T14:35:40.772Z,40.09
2022-08-28T14:38:10.598Z,38.41
2022-08-28T14:40:43.197Z,39.22
2022-08-28T14:43:12.041Z,39.00
2022-08-28T14:45:46.860Z,39.31
2022-08-28T14:48:15.004Z,38.06
2022-08-28T14:50:44.064Z,38.40
2022-08-28T14:53:11.151Z,39.68
2022-08-28T14:55:56.163Z,38.96
2022-08-28T14:58:23.000Z,38.15
2022-08-28T15:00:50.883Z,38.16
2022-08-28T15:03:19.723Z,37.93
2022-08-28T15:05:46.565Z,37.48
2022-08-28T15:08:17.226Z,38.47
2022-08-28T15:10:45.003Z,38.87
2022-08-28T15:13:12.803Z,39.17
2022-08-28T15:15:41.347Z,40.28
2022-08-28T15:18:10.324Z,40.21
2022-08-28T15:20:42.940Z,40.63
2022-08-28T15:23:11.517Z,40.98
2022-08-28T15:25:38.483Z,41.07
2022-08-28T15:28:05.847Z,41.53
2022-08-28T15:30:32.813Z,42.15
2022-08-28T15:32:59.921Z,42.15
2022-08-28T15:35:26.984Z,42.19
2022-08-28T15:37:54.264Z,43.01
2022-08-28T15:40:40.178Z,44.21
2022-08-28T15:43:07.416Z,44.76
2022-08-28T15:45:39.261Z,44.80
2022-08-28T15:48:06.911Z,45.14
2022-08-28T15:50:34.230Z,45.44
2022-08-28T15:53:01.847Z,45.80
2022-08-28T15:55:28.952Z,46.08
2022-08-28T15:57:56.295Z,45.68
2022-08-28T16:00:23.500Z,45.95
2022-08-28T16:02:50.319Z,45.63
2022-08-28T16:05:17.487Z,44.86
2022-08-28T16:07:44.945Z,45.22
2022-08-28T16:10:13.807Z,45.95
2022-08-28T16:12:41.116Z,46.60
2022-08-28T16:15:09.448Z,47.11
2022-08-28T16:17:36.327Z,46.38
2022-08-28T16:20:06.700Z,46.50
2022-08-28T16:22:39.539Z,46.12
2022-08-28T16:25:07.598Z,46.22
2022-08-28T16:27:34.436Z,46.52
2022-08-28T16:30:03.391Z,46.79
2022-08-28T16:32:30.540Z,47.02
2022-08-28T16:34:58.355Z,47.07
2022-08-28T16:37:26.128Z,47.37
2022-08-28T16:40:06.674Z,47.93
2022-08-28T16:42:33.573Z,48.55
2022-08-28T16:45:00.687Z,50.17
2022-08-28T16:47:31.742Z,51.14
2022-08-28T16:50:05.927Z,52.69
2022-08-28T16:52:33.118Z,54.51
2022-08-28T16:55:00.083Z,54.90
2022-08-28T16:57:27.587Z,56.74
2022-08-28T16:59:54.674Z,58.16
2022-08-28T17:02:26.694Z,58.92
2022-08-28T17:05:00.490Z,60.59
2022-08-28T17:07:28.476Z,61.21
2022-08-28T17:09:55.661Z,62.62
2022-08-28T17:12:22.615Z,62.96
2022-08-28T17:14:49.724Z,63.43
2022-08-28T17:17:16.591Z,63.77
2022-08-28T17:19:43.421Z,64.31
2022-08-28T17:22:29.354Z,66.74
2022-08-28T17:24:56.259Z,69.72
2022-08-28T17:27:23.357Z,72.07
2022-08-28T17:29:50.688Z,73.56
2022-08-28T17:32:17.669Z,74.25
2022-08-28T17:34:45.246Z,75.22
2022-08-28T17:37:12.137Z,75.11
2022-08-28T17:39:39.128Z,75.17
2022-08-28T17:42:06.299Z,75.19
2022-08-28T17:44:35.329Z,74.66
2022-08-28T17:47:02.415Z,75.92
2022-08-28T17:49:29.574Z,76.10
2022-08-28T17:51:56.485Z,76.32
2022-08-28T17:54:24.459Z,76.49
2022-08-28T17:56:54.474Z,76.92
2022-08-28T17:59:22.803Z,77.60
2022-08-28T18:01:50.099Z,78.72
2022-08-28T18:04:23.918Z,80.94
2022-08-28T18:06:54.478Z,83.93
2022-08-28T18:09:23.534Z,86.55
2022-08-28T18:11:51.122Z,88.27
2022-08-28T18:14:18.100Z,90.37
2022-08-28T18:16:45.144Z,91.13
2022-08-28T18:19:12.082Z,92.36
2022-08-28T18:21:40.425Z,92.48
2022-08-28T18:24:08.563Z,92.28
2022-08-28T18:26:35.395Z,92.36
2022-08-28T18:29:02.216Z,92.73
2022-08-28T18:33:58.350Z,93.28
2022-08-28T18:36:43.530Z,93.89
2022-08-28T18:39:10.886Z,94.59
2022-08-28T18:41:43.492Z,95.01
2022-08-28T18:44:13.531Z,95.97
2022-08-28T18:46:40.643Z,96.01
2022-08-28T18:49:07.556Z,96.40
2022-08-28T18:51:34.615Z,96.28
2022-08-28T18:54:02.955Z,95.81
2022-08-28T18:56:32.165Z,95.90
2022-08-28T18:59:00.688Z,95.13
2022-08-28T19:01:28.464Z,94.70
2022-08-28T19:03:55.643Z,95.71
2022-08-28T19:06:23.412Z,96.70
2022-08-28T19:08:50.290Z,97.73
2022-08-28T19:11:17.817Z,98.80
2022-08-28T19:13:45.036Z,100.00
2022-08-28T19:16:17.316Z,100.00
2022-08-28T19:18:45.815Z,100.00
2022-08-28T19:21:19.679Z,100.00
2022-08-28T19:23:55.986Z,100.00
2022-08-28T19:26:26.937Z,100.00
2022-08-28T19:28:55.173Z,100.00
2022-08-28T19:31:23.014Z,100.00
2022-08-28T19:33:50.768Z,100.00
2022-08-28T19:36:18.664Z,100.00
2022-08-28T19:38:45.821Z,100.00
2022-08-28T19:41:14.544Z,100.00
2022-08-28T19:43:43.414Z,100.00
2022-08-28T19:46:18.600Z,100.00
2022-08-28T19:48:51.797Z,100.00
2022-08-28T19:51:22.661Z,100.00
2022-08-28T19:53:57.280Z,100.00
2022-08-28T19:56:29.953Z,100.00
2022-08-28T19:58:59.332Z,100.00
2022-08-28T20:01:29.964Z,100.00
2022-08-28T20:03:58.182Z,100.00
2022-08-28T20:06:25.662Z,100.00
2022-08-28T20:08:52.507Z,100.00
2022-08-28T20:11:30.298Z,100.00
2022-08-28T20:14:04.048Z,100.00
2022-08-28T20:16:35.326Z,100.00
2022-08-28T20:19:04.001Z,100.00
2022-08-28T20:21:37.078Z,100.00
2022-08-28T20:24:12.077Z,100.00
2022-08-28T20:26:39.575Z,100.00
2022-08-28T20:29:08.598Z,100.00
2022-08-28T20:31:40.496Z,100.00
2022-08-28T20:34:09.239Z,100.00
2022-08-28T20:36:36.232Z,100.00
2022-08-28T20:39:07.182Z,100.00
2022-08-28T20:41:34.859Z,100.00
2022-08-28T20:44:05.040Z,100.00
2022-08-28T20:46:37.045Z,100.00
2022-08-28T20:49:08.111Z,100.00
2022-08-28T20:51:53.349Z,100.00
2022-08-28T20:54:22.197Z,100.00
2022-08-28T20:56:51.026Z,100.00
2022-08-28T20:59:19.504Z,100.00
2022-08-28T21:01:46.733Z,100.00
2022-08-28T21:04:13.603Z,100.00
2022-08-28T21:06:40.463Z,100.00
2022-08-28T21:09:07.474Z,100.00
2022-08-28T21:11:34.333Z,100.00
2022-08-28T21:14:01.133Z,100.00
2022-08-28T21:16:28.278Z,100.00
2022-08-28T21:19:14.636Z,100.00
2022-08-28T21:21:42.857Z,100.00
2022-08-28T21:24:12.219Z,100.00
2022-08-28T21:26:43.279Z,100.00
2022-08-28T21:29:11.395Z,100.00
2022-08-28T21:31:40.919Z,100.00
2022-08-28T21:34:09.520Z,100.00
2022-08-28T21:36:38.221Z,100.00
2022-08-28T21:39:05.949Z,100.00
2022-08-28T21:41:33.096Z,100.00
2022-08-28T21:44:00.333Z,100.00
2022-08-28T21:46:27.874Z,100.00
2022-08-28T21:48:56.305Z,100.00
2022-08-28T21:51:24.693Z,100.00
2022-08-28T21:53:52.966Z,100.00
2022-08-28T21:56:24.085Z,100.00
2022-08-28T21:58:52.569Z,100.00
2022-08-28T22:01:21.168Z,100.00
2022-08-28T22:03:48.089Z,100.00
2022-08-28T22:06:18.517Z,100.00
2022-08-28T22:08:46.744Z,100.00
2022-08-28T22:11:14.247Z,100.00
2022-08-28T22:13:44.223Z,100.00
2022-08-28T22:16:11.381Z,100.00
2022-08-28T22:18:38.318Z,100.00
2022-08-28T22:21:24.902Z,100.00
2022-08-28T22:23:51.728Z,100.00
2022-08-28T22:26:20.726Z,100.00
2022-08-28T22:28:47.880Z,100.00
2022-08-28T22:31:14.855Z,100.00
2022-08-28T22:33:43.093Z,100.00
2022-08-28T22:36:10.938Z,100.00
2022-08-28T22:38:39.681Z,100.00
2022-08-28T22:41:07.667Z,100.00
2022-08-28T22:43:35.335Z,100.00
2022-08-28T22:46:03.916Z,100.00
2022-08-28T22:48:31.506Z,100.00
2022-08-28T22:51:18.351Z,100.00
2022-08-28T22:53:46.818Z,100.00
2022-08-28T22:56:14.600Z,100.00
2022-08-28T22:58:41.699Z,100.00
2022-08-28T23:01:13.959Z,100.00
2022-08-28T23:03:41.268Z,100.00
2022-08-28T23:06:08.385Z,100.00
2022-08-28T23:08:35.492Z,100.00
2022-08-28T23:11:03.180Z,100.00
2022-08-28T23:13:30.898Z,100.00
2022-08-28T23:15:58.399Z,100.00
2022-08-28T23:18:25.503Z,100.00
2022-08-28T23:20:55.340Z,100.00
2022-08-28T23:23:23.844Z,100.00
2022-08-28T23:25:50.766Z,100.00
2022-08-28T23:28:18.445Z,100.00
2022-08-28T23:30:48.475Z,100.00
2022-08-28T23:33:23.737Z,100.00
2022-08-28T23:35:52.120Z,100.00
2022-08-28T23:38:19.526Z,100.00
2022-08-28T23:40:48.267Z,100.00
2022-08-28T23:43:17.963Z,100.00
2022-08-28T23:45:45.106Z,100.00
2022-08-28T23:48:12.349Z,100.00
2022-08-28T23:50:42.195Z,100.00
2022-08-28T23:53:09.854Z,100.00
2022-08-28T23:55:37.422Z,100.00
2022-08-28T23:58:05.379Z,100.00
